Eastwood, United Kingdom
Current Conditions -  °F | °C
As of 10:20 AM on Tuesday 27 Jan 2015 (Local Time) from EGNX Reporting Station
Scattered Clouds Scattered Clouds  
Wind Chill: 36°   Ceiling: Unl
Heat Index: 43°   Visibility: 6mi
Dew Point: 39°   Wind: 13mph
Humidity: 87%   Direction: 270°W
Pressure: 30.33"   Gusts: NA
Location:  53°N, 1.3°W
Report Text: EGNX 271020Z 27011KT 9999 FEW015 SCT025 06/04 Q1027
Loading
Personal Weather Stations






























Interactive Weather Map New forecast layout! Learn more

10-Day Weather Forecast

Advertisements
Track Severe Weather on mobile